createdAt,value
2018-02-04T00:02:17.618Z,48.20
2018-02-04T00:04:46.344Z,35.70
2018-02-04T00:07:13.849Z,37.60
2018-02-04T00:09:43.860Z,38.60
2018-02-04T00:12:12.691Z,35.30
2018-02-04T00:14:43.673Z,35.93
2018-02-04T00:17:11.220Z,49.07
2018-02-04T00:19:38.977Z,33.80
2018-02-04T00:22:06.499Z,33.37
2018-02-04T00:24:34.003Z,39.40
2018-02-04T00:27:01.560Z,33.87
2018-02-04T00:29:29.045Z,45.20
2018-02-04T00:31:56.555Z,35.27
2018-02-04T00:34:24.044Z,41.67
2018-02-04T00:36:51.532Z,52.67
2018-02-04T00:39:19.797Z,36.60
2018-02-04T00:41:48.061Z,45.47
2018-02-04T00:44:15.557Z,43.17
2018-02-04T00:46:43.092Z,41.73
2018-02-04T00:49:10.597Z,40.67
2018-02-04T00:51:38.098Z,36.90
2018-02-04T00:54:06.364Z,43.13
2018-02-04T00:56:33.864Z,61.43
2018-02-04T00:59:01.399Z,48.17
2018-02-04T01:01:29.661Z,38.57
2018-02-04T01:03:57.201Z,38.33
2018-02-04T01:06:24.682Z,43.47
2018-02-04T01:08:52.951Z,40.00
2018-02-04T01:11:20.465Z,32.90
2018-02-04T01:13:48.002Z,37.27
2018-02-04T01:16:17.371Z,30.83
2018-02-04T01:18:45.038Z,33.53
2018-02-04T01:21:12.710Z,29.50
2018-02-04T01:23:40.322Z,30.30
2018-02-04T01:26:08.027Z,36.83
2018-02-04T01:28:36.209Z,41.00
2018-02-04T01:31:03.759Z,34.07
2018-02-04T01:33:32.163Z,34.23
2018-02-04T01:35:59.765Z,34.53
2018-02-04T01:38:28.077Z,32.03
2018-02-04T01:40:55.637Z,36.10
2018-02-04T01:43:23.227Z,31.37
2018-02-04T01:45:54.117Z,39.70
2018-02-04T01:48:21.752Z,36.30
2018-02-04T01:50:49.247Z,35.30
2018-02-04T01:53:16.815Z,35.13
2018-02-04T01:55:45.115Z,43.50
2018-02-04T01:58:12.650Z,31.80
2018-02-04T02:00:40.157Z,38.07
2018-02-04T02:03:08.468Z,35.37
2018-02-04T02:05:39.847Z,36.27
2018-02-04T02:08:08.127Z,34.93
2018-02-04T02:10:35.749Z,33.67
2018-02-04T02:13:03.193Z,40.47
2018-02-04T02:15:30.700Z,33.53
2018-02-04T02:17:58.209Z,30.17
2018-02-04T02:20:25.679Z,31.57
2018-02-04T02:22:53.168Z,31.70
2018-02-04T02:25:20.977Z,36.87
2018-02-04T02:27:48.458Z,34.57
2018-02-04T02:30:16.015Z,36.60
2018-02-04T02:32:43.490Z,32.23
2018-02-04T02:35:11.721Z,30.97
2018-02-04T02:37:39.207Z,35.50
2018-02-04T02:40:06.717Z,32.03
2018-02-04T02:42:34.195Z,37.10
2018-02-04T02:45:01.727Z,36.07
2018-02-04T02:47:29.313Z,30.10
2018-02-04T02:49:56.798Z,37.20
2018-02-04T02:52:24.322Z,34.73
2018-02-04T02:54:52.556Z,54.30
2018-02-04T02:57:20.065Z,47.10
2018-02-04T02:59:48.350Z,48.37
2018-02-04T03:02:15.856Z,42.97
2018-02-04T03:04:43.429Z,45.13
2018-02-04T03:07:10.954Z,47.70
2018-02-04T03:09:39.940Z,37.20
2018-02-04T03:12:07.409Z,36.87
2018-02-04T03:14:35.654Z,39.10
2018-02-04T03:17:03.142Z,34.90
2018-02-04T03:19:30.614Z,35.80
2018-02-04T03:21:59.079Z,34.93
2018-02-04T03:24:26.563Z,39.10
2018-02-04T03:26:54.047Z,38.33
2018-02-04T03:29:21.523Z,38.33
2018-02-04T03:31:48.993Z,39.37
2018-02-04T03:34:16.470Z,34.47
2018-02-04T03:36:44.769Z,33.80
2018-02-04T03:39:12.262Z,35.93
2018-02-04T03:41:39.766Z,36.67
2018-02-04T03:44:07.266Z,44.07
2018-02-04T03:46:34.766Z,42.50
2018-02-04T03:49:03.025Z,41.13
2018-02-04T03:51:30.508Z,38.57
2018-02-04T03:53:58.757Z,37.50
2018-02-04T03:56:26.229Z,38.10
2018-02-04T03:58:54.492Z,35.07
2018-02-04T04:01:21.949Z,34.37
2018-02-04T04:03:49.478Z,40.37
2018-02-04T04:06:16.962Z,32.53
2018-02-04T04:08:44.421Z,35.60
2018-02-04T04:11:11.918Z,39.70
2018-02-04T04:13:39.402Z,41.53
2018-02-04T04:16:06.876Z,39.57
2018-02-04T04:18:34.358Z,38.23
2018-02-04T04:21:01.869Z,37.57
2018-02-04T04:23:29.337Z,46.17
2018-02-04T04:25:56.810Z,31.67
2018-02-04T04:28:24.313Z,35.37
2018-02-04T04:30:51.788Z,45.63
2018-02-04T04:33:19.306Z,45.40
2018-02-04T04:35:46.831Z,41.17
2018-02-04T04:38:14.314Z,35.03
2018-02-04T04:40:41.781Z,37.97
2018-02-04T04:43:09.281Z,35.53
2018-02-04T04:45:36.774Z,38.77
2018-02-04T04:48:04.290Z,35.83
2018-02-04T04:50:31.788Z,35.80
2018-02-04T04:52:59.239Z,28.87
2018-02-04T04:55:26.746Z,34.83
2018-02-04T04:57:54.226Z,45.20
2018-02-04T05:00:21.717Z,34.83
2018-02-04T05:02:49.185Z,34.37
2018-02-04T05:05:17.464Z,38.27
2018-02-04T05:07:44.946Z,38.33
2018-02-04T05:10:13.184Z,34.67
2018-02-04T05:12:40.685Z,38.40
2018-02-04T05:15:08.910Z,40.60
2018-02-04T05:17:36.382Z,38.73
2018-02-04T05:20:03.858Z,37.33
2018-02-04T05:22:32.148Z,37.60
2018-02-04T05:25:00.673Z,39.33
2018-02-04T05:27:28.154Z,34.10
2018-02-04T05:29:55.671Z,32.37
2018-02-04T05:32:23.864Z,34.40
2018-02-04T05:34:51.412Z,35.50
2018-02-04T05:37:18.883Z,31.97
2018-02-04T05:39:46.368Z,25.93
2018-02-04T05:42:14.638Z,35.43
2018-02-04T05:44:42.145Z,38.77
2018-02-04T05:47:09.650Z,44.43
2018-02-04T05:49:37.171Z,31.57
2018-02-04T05:52:04.675Z,39.60
2018-02-04T05:54:32.170Z,35.23
2018-02-04T05:56:59.956Z,27.73
2018-02-04T05:59:27.445Z,40.20
2018-02-04T06:01:54.924Z,34.07
2018-02-04T06:04:22.424Z,35.67
2018-02-04T06:06:49.936Z,34.77
2018-02-04T06:09:17.461Z,32.90
2018-02-04T06:11:44.960Z,34.30
2018-02-04T06:14:12.453Z,30.93
2018-02-04T06:16:39.921Z,29.73
2018-02-04T06:19:07.421Z,30.50
2018-02-04T06:21:35.689Z,38.40
2018-02-04T06:24:03.156Z,32.00
2018-02-04T06:26:30.660Z,26.10
2018-02-04T06:28:58.177Z,27.20
2018-02-04T06:31:26.437Z,27.80
2018-02-04T06:33:53.970Z,33.73
2018-02-04T06:36:21.454Z,27.87
2018-02-04T06:38:48.940Z,28.13
2018-02-04T06:41:16.494Z,27.30
2018-02-04T06:43:44.835Z,27.43
2018-02-04T06:46:12.319Z,28.67
2018-02-04T06:48:40.603Z,29.23
2018-02-04T06:51:08.107Z,30.00
2018-02-04T06:53:35.623Z,34.10
2018-02-04T06:56:04.024Z,35.60
2018-02-04T06:58:31.514Z,42.47
2018-02-04T07:00:59.022Z,35.17
2018-02-04T07:03:26.534Z,46.23
2018-02-04T07:05:54.018Z,40.07
2018-02-04T07:08:21.523Z,36.37
2018-02-04T07:10:49.054Z,33.73
2018-02-04T07:13:16.566Z,37.00
2018-02-04T07:15:44.824Z,35.87
2018-02-04T07:18:12.325Z,30.27
2018-02-04T07:20:39.792Z,27.87
2018-02-04T07:23:07.310Z,34.70
2018-02-04T07:25:34.801Z,27.17
2018-02-04T07:28:03.112Z,28.63
2018-02-04T07:30:30.628Z,31.00
2018-02-04T07:32:58.094Z,22.60
2018-02-04T07:35:25.586Z,36.00
2018-02-04T07:37:53.061Z,33.93
2018-02-04T07:40:20.570Z,29.50
2018-02-04T07:42:48.854Z,40.00
2018-02-04T07:45:16.415Z,34.93
2018-02-04T07:47:43.923Z,38.13
2018-02-04T07:50:11.485Z,32.00
2018-02-04T07:52:39.075Z,38.30
2018-02-04T07:55:06.753Z,37.27
2018-02-04T07:57:34.336Z,35.37
2018-02-04T08:00:01.988Z,40.40
2018-02-04T08:02:29.565Z,35.63
2018-02-04T08:04:57.133Z,33.87
2018-02-04T08:07:24.663Z,33.03
2018-02-04T08:09:52.176Z,34.43
2018-02-04T08:12:20.469Z,35.37
2018-02-04T08:14:47.985Z,33.97
2018-02-04T08:17:15.491Z,39.50
2018-02-04T08:19:43.028Z,33.90
2018-02-04T08:22:10.627Z,34.00
2018-02-04T08:24:38.120Z,31.80
2018-02-04T08:27:05.628Z,27.27
2018-02-04T08:29:33.128Z,31.67
2018-02-04T08:32:00.639Z,32.10
2018-02-04T08:34:28.152Z,35.63
2018-02-04T08:36:55.647Z,34.53
2018-02-04T08:39:23.166Z,27.83
2018-02-04T08:41:50.685Z,37.77
2018-02-04T08:44:18.210Z,26.97
2018-02-04T08:46:45.702Z,29.03
2018-02-04T08:49:13.236Z,22.77
2018-02-04T08:51:40.718Z,24.27
2018-02-04T08:54:08.985Z,27.23
2018-02-04T08:56:36.539Z,16.50
2018-02-04T08:59:04.817Z,23.63
2018-02-04T09:01:32.347Z,18.90
2018-02-04T09:03:59.812Z,18.70
2018-02-04T09:06:27.348Z,19.43
2018-02-04T09:08:55.634Z,14.37
2018-02-04T09:11:23.141Z,15.87
2018-02-04T09:13:50.650Z,19.83
2018-02-04T09:16:18.139Z,19.47
2018-02-04T09:18:45.597Z,21.67
2018-02-04T09:21:13.865Z,16.37
2018-02-04T09:23:41.386Z,20.43
2018-02-04T09:26:08.878Z,20.50
2018-02-04T09:28:36.354Z,15.83
2018-02-04T09:31:03.867Z,16.27
2018-02-04T09:33:31.359Z,16.50
2018-02-04T09:35:58.843Z,20.33
2018-02-04T09:38:26.656Z,16.37
2018-02-04T09:40:54.148Z,16.00
2018-02-04T09:43:22.458Z,15.90
2018-02-04T09:45:49.957Z,26.27
2018-02-04T09:48:17.466Z,18.70
2018-02-04T09:50:44.954Z,20.10
2018-02-04T09:53:12.463Z,16.90
2018-02-04T09:55:40.298Z,16.10
2018-02-04T09:58:07.824Z,18.87
2018-02-04T10:00:36.097Z,20.63
2018-02-04T10:03:03.584Z,17.53
2018-02-04T10:05:31.068Z,22.20
2018-02-04T10:07:58.591Z,18.03
2018-02-04T10:10:26.160Z,18.83
2018-02-04T10:12:55.692Z,20.30
2018-02-04T10:20:45.078Z,19.27
2018-02-04T10:23:12.964Z,16.80
2018-02-04T10:25:45.520Z,20.53
2018-02-04T10:28:13.086Z,18.77
2018-02-04T10:30:41.152Z,21.90
2018-02-04T10:33:08.662Z,18.10
2018-02-04T10:35:36.180Z,21.13
2018-02-04T10:38:03.706Z,20.87
2018-02-04T10:40:31.275Z,26.60
2018-02-04T10:42:58.790Z,23.20
2018-02-04T10:45:26.277Z,19.03
2018-02-04T10:47:54.562Z,19.37
2018-02-04T10:50:22.067Z,15.80
2018-02-04T10:52:49.562Z,24.30
2018-02-04T10:55:17.064Z,22.67
2018-02-04T10:57:44.622Z,27.53
2018-02-04T11:00:12.872Z,17.47
2018-02-04T11:02:40.360Z,18.90
2018-02-04T11:05:08.653Z,19.10
2018-02-04T11:07:36.387Z,19.60
2018-02-04T11:10:03.913Z,18.77
2018-02-04T11:12:32.218Z,23.50
2018-02-04T11:14:59.757Z,20.80
2018-02-04T11:17:28.060Z,20.83
2018-02-04T11:19:55.580Z,18.23
2018-02-04T11:22:23.097Z,19.40
2018-02-04T11:24:50.910Z,17.57
2018-02-04T11:27:18.474Z,17.50
2018-02-04T11:29:45.958Z,23.70
2018-02-04T11:32:21.250Z,19.43
2018-02-04T11:34:48.758Z,18.20
2018-02-04T11:37:17.018Z,17.00
2018-02-04T11:39:44.540Z,17.20
2018-02-04T11:42:12.034Z,19.70
2018-02-04T11:44:39.549Z,17.37
2018-02-04T11:47:07.049Z,16.07
2018-02-04T11:49:34.539Z,16.37
2018-02-04T11:52:02.796Z,15.00
2018-02-04T11:54:31.072Z,19.70
2018-02-04T11:56:59.352Z,14.97
2018-02-04T11:59:27.642Z,16.70
2018-02-04T12:01:55.134Z,16.00
2018-02-04T12:04:22.639Z,16.10
2018-02-04T12:06:51.788Z,13.53
2018-02-04T12:09:19.309Z,12.77
2018-02-04T12:11:46.850Z,12.27
2018-02-04T12:14:15.063Z,14.80
2018-02-04T12:16:42.555Z,13.07
2018-02-04T12:19:10.047Z,12.90
2018-02-04T12:21:39.304Z,16.30
2018-02-04T12:24:06.830Z,13.30
2018-02-04T12:26:35.039Z,11.23
2018-02-04T12:29:04.575Z,11.43
2018-02-04T12:31:32.345Z,11.30
2018-02-04T12:33:59.870Z,9.60
2018-02-04T12:36:27.568Z,10.90
2018-02-04T12:38:55.180Z,10.47
2018-02-04T12:41:22.653Z,8.63
2018-02-04T12:43:50.949Z,11.40
2018-02-04T12:46:18.521Z,12.47
2018-02-04T12:48:46.924Z,12.00
2018-02-04T12:51:14.482Z,10.37
2018-02-04T12:53:42.008Z,15.27
2018-02-04T12:56:09.557Z,9.13
2018-02-04T12:58:37.809Z,12.30
2018-02-04T13:01:05.307Z,9.43
2018-02-04T13:03:32.840Z,10.20
2018-02-04T13:06:00.345Z,10.17
2018-02-04T13:08:27.891Z,11.17
2018-02-04T13:10:55.398Z,9.43
2018-02-04T13:13:23.990Z,10.00
2018-02-04T13:15:51.538Z,12.63
2018-02-04T13:18:19.916Z,12.80
2018-02-04T13:20:48.206Z,8.33
2018-02-04T13:23:15.743Z,10.13
2018-02-04T13:25:43.291Z,10.10
2018-02-04T13:28:10.821Z,9.07
2018-02-04T13:30:38.346Z,14.70
2018-02-04T13:33:05.836Z,10.67
2018-02-04T13:35:33.378Z,10.20
2018-02-04T13:38:01.655Z,9.90
2018-02-04T13:40:30.225Z,8.90
2018-02-04T13:42:57.718Z,9.80
2018-02-04T13:45:25.242Z,11.47
2018-02-04T13:47:52.737Z,11.60
2018-02-04T13:50:20.268Z,10.93
2018-02-04T13:52:47.811Z,12.80
2018-02-04T13:55:15.349Z,13.27
2018-02-04T13:57:42.818Z,12.80
2018-02-04T14:00:10.284Z,9.70
2018-02-04T14:02:37.863Z,13.67
2018-02-04T14:05:05.351Z,12.47
2018-02-04T14:07:32.943Z,14.73
2018-02-04T14:10:00.775Z,15.60
2018-02-04T14:12:28.577Z,14.13
2018-02-04T14:14:56.123Z,17.17
2018-02-04T14:17:23.656Z,18.77
2018-02-04T14:19:51.161Z,23.70
2018-02-04T14:22:18.703Z,25.70
2018-02-04T14:24:47.033Z,32.90
2018-02-04T14:27:14.562Z,27.47
2018-02-04T14:29:42.057Z,16.23
2018-02-04T14:32:09.608Z,14.53
2018-02-04T14:34:37.081Z,12.93
2018-02-04T14:37:04.581Z,15.83
2018-02-04T14:39:32.063Z,15.60
2018-02-04T14:41:59.568Z,19.97
2018-02-04T14:44:27.911Z,15.27
2018-02-04T14:46:56.155Z,11.87
2018-02-04T14:49:23.656Z,7.60
2018-02-04T14:51:51.182Z,9.90
2018-02-04T14:54:18.684Z,14.20
2018-02-04T14:56:46.310Z,11.17
2018-02-04T14:59:13.830Z,8.73
2018-02-04T15:01:41.323Z,10.93
2018-02-04T15:04:08.818Z,7.60
2018-02-04T15:06:36.334Z,9.10
2018-02-04T15:09:03.829Z,8.80
2018-02-04T15:11:31.394Z,13.60
2018-02-04T15:13:58.893Z,13.67
2018-02-04T15:16:27.781Z,9.10
2018-02-04T15:18:55.435Z,11.07
2018-02-04T15:21:23.848Z,11.67
2018-02-04T15:23:51.508Z,9.37
2018-02-04T15:26:19.107Z,14.67
2018-02-04T15:28:46.699Z,15.00
2018-02-04T15:31:15.016Z,13.33
2018-02-04T15:33:43.475Z,10.17
2018-02-04T15:36:11.892Z,13.83
2018-02-04T15:38:40.329Z,9.97
2018-02-04T15:41:07.888Z,12.63
2018-02-04T15:43:36.296Z,19.40
2018-02-04T15:46:04.590Z,23.23
2018-02-04T15:48:32.133Z,16.10
2018-02-04T15:50:59.650Z,28.27
2018-02-04T15:53:27.139Z,13.80
2018-02-04T15:55:55.108Z,13.10
2018-02-04T15:58:23.431Z,12.17
2018-02-04T16:00:50.989Z,15.57
2018-02-04T16:03:18.511Z,9.50
2018-02-04T16:05:46.072Z,14.93
2018-02-04T16:08:13.614Z,14.50
2018-02-04T16:10:41.120Z,13.10
2018-02-04T16:13:08.660Z,15.23
2018-02-04T16:15:36.213Z,23.67
2018-02-04T16:18:03.740Z,14.37
2018-02-04T16:20:31.250Z,12.70
2018-02-04T16:22:58.770Z,14.80
2018-02-04T16:25:27.064Z,17.63
2018-02-04T16:27:55.343Z,17.47
2018-02-04T16:30:22.865Z,16.57
2018-02-04T16:32:50.332Z,15.70
2018-02-04T16:35:18.605Z,15.20
2018-02-04T16:37:46.884Z,11.03
2018-02-04T16:40:14.418Z,14.97
2018-02-04T16:42:41.917Z,21.37
2018-02-04T16:45:09.496Z,20.37
2018-02-04T16:47:36.997Z,13.50
2018-02-04T16:50:05.298Z,17.87
2018-02-04T16:52:32.804Z,24.57
2018-02-04T16:55:00.320Z,20.23
2018-02-04T16:57:28.653Z,28.17
2018-02-04T16:59:56.147Z,24.87
2018-02-04T17:02:23.644Z,18.63
2018-02-04T17:04:51.648Z,23.67
2018-02-04T17:07:19.154Z,25.10
2018-02-04T17:09:46.671Z,21.30
2018-02-04T17:12:15.093Z,24.53
2018-02-04T17:14:42.693Z,18.67
2018-02-04T17:17:10.234Z,16.40
2018-02-04T17:19:37.710Z,23.47
2018-02-04T17:22:06.016Z,16.83
2018-02-04T17:24:33.512Z,11.73
2018-02-04T17:27:01.016Z,18.43
2018-02-04T17:29:30.022Z,24.70
2018-02-04T17:31:57.511Z,15.00
2018-02-04T17:34:25.044Z,12.87
2018-02-04T17:36:53.316Z,18.57
2018-02-04T17:39:20.803Z,13.80
2018-02-04T17:41:48.437Z,11.10
2018-02-04T17:44:16.022Z,12.40
2018-02-04T17:46:43.508Z,13.97
2018-02-04T17:49:10.969Z,17.20
2018-02-04T17:51:38.547Z,18.40
2018-02-04T17:54:06.055Z,18.40
2018-02-04T17:56:33.663Z,14.70
2018-02-04T17:59:01.943Z,8.23
2018-02-04T18:01:30.181Z,12.43
2018-02-04T18:03:57.999Z,15.47
2018-02-04T18:06:25.559Z,9.87
2018-02-04T18:08:53.051Z,11.00
2018-02-04T18:11:20.562Z,11.70
2018-02-04T18:13:48.069Z,12.60
2018-02-04T18:16:16.399Z,11.30
2018-02-04T18:18:44.833Z,10.33
2018-02-04T18:21:12.655Z,15.80
2018-02-04T18:23:40.255Z,10.83
2018-02-04T18:26:07.803Z,7.77
2018-02-04T18:28:36.146Z,6.50
2018-02-04T18:31:03.808Z,6.73
2018-02-04T18:33:31.418Z,9.17
2018-02-04T18:35:58.945Z,8.17
2018-02-04T18:38:26.457Z,9.33
2018-02-04T18:40:53.975Z,7.40
2018-02-04T18:43:21.617Z,9.67
2018-02-04T18:45:49.159Z,9.73
2018-02-04T18:48:16.762Z,9.13
2018-02-04T18:50:44.242Z,10.30
2018-02-04T18:53:11.756Z,10.03
2018-02-04T18:55:40.036Z,6.97
2018-02-04T18:58:08.414Z,10.07
2018-02-04T19:00:35.978Z,15.13
2018-02-04T19:03:04.074Z,11.67
2018-02-04T19:05:32.390Z,9.63
2018-02-04T19:08:00.689Z,8.93
2018-02-04T19:10:28.183Z,11.37
2018-02-04T19:12:55.662Z,13.63
2018-02-04T19:15:23.146Z,10.67
2018-02-04T19:17:50.668Z,13.87
2018-02-04T19:20:18.194Z,10.10
2018-02-04T19:22:46.465Z,14.07
2018-02-04T19:25:14.710Z,11.50
2018-02-04T19:27:42.195Z,14.07
2018-02-04T19:30:09.811Z,12.70
2018-02-04T19:32:37.288Z,12.47
2018-02-04T19:35:04.796Z,12.00
2018-02-04T19:37:32.304Z,11.57
2018-02-04T19:39:59.810Z,12.57
2018-02-04T19:42:27.381Z,12.13
2018-02-04T19:44:54.905Z,7.97
2018-02-04T19:47:23.205Z,15.50
2018-02-04T19:49:50.730Z,12.47
2018-02-04T19:52:18.248Z,7.13
2018-02-04T19:54:45.812Z,12.60
2018-02-04T19:57:13.348Z,10.60
2018-02-04T19:59:40.835Z,8.63
2018-02-04T20:02:08.364Z,12.10
2018-02-04T20:04:36.341Z,12.53
2018-02-04T20:07:03.863Z,23.43
2018-02-04T20:09:32.217Z,12.30
2018-02-04T20:11:59.698Z,12.70
2018-02-04T20:14:27.269Z,9.93
2018-02-04T20:16:56.198Z,9.90
2018-02-04T20:19:23.742Z,12.10
2018-02-04T20:21:51.447Z,17.37
2018-02-04T20:24:18.955Z,11.63
2018-02-04T20:26:46.496Z,13.43
2018-02-04T20:29:14.123Z,12.10
2018-02-04T20:31:41.703Z,17.10
2018-02-04T20:34:21.280Z,12.80
2018-02-04T20:36:49.582Z,14.90
2018-02-04T20:39:17.133Z,16.57
2018-02-04T20:41:44.671Z,15.87
2018-02-04T20:44:12.232Z,14.07
2018-02-04T20:46:40.485Z,12.23
2018-02-04T20:49:08.084Z,12.47
2018-02-04T20:51:35.600Z,11.70
2018-02-04T20:54:03.871Z,16.03
2018-02-04T20:56:32.260Z,15.93
2018-02-04T20:58:59.829Z,17.87
2018-02-04T21:01:27.318Z,16.40
2018-02-04T21:03:55.093Z,12.90
2018-02-04T21:06:24.053Z,14.90
2018-02-04T21:08:51.571Z,15.87
2018-02-04T21:11:19.891Z,15.80
2018-02-04T21:13:47.424Z,14.80
2018-02-04T21:16:15.171Z,13.87
2018-02-04T21:18:42.710Z,15.10
2018-02-04T21:21:10.329Z,14.30
2018-02-04T21:23:37.931Z,14.97
2018-02-04T21:26:05.559Z,11.43
2018-02-04T21:28:33.111Z,13.80
2018-02-04T21:31:00.693Z,18.63
2018-02-04T21:33:28.314Z,11.87
2018-02-04T21:35:55.889Z,13.90
2018-02-04T21:38:23.390Z,18.00
2018-02-04T21:40:50.898Z,15.53
2018-02-04T21:43:22.043Z,14.50
2018-02-04T21:45:49.615Z,13.57
2018-02-04T21:48:17.252Z,14.57
2018-02-04T21:50:44.854Z,12.63
2018-02-04T21:53:12.491Z,13.33
2018-02-04T21:55:41.913Z,13.47
2018-02-04T21:58:09.567Z,15.03
2018-02-04T22:00:37.172Z,12.10
2018-02-04T22:03:05.535Z,16.93
2018-02-04T22:05:34.990Z,13.70
2018-02-04T22:08:03.375Z,18.80
2018-02-04T22:10:30.959Z,14.37
2018-02-04T22:12:58.541Z,16.57
2018-02-04T22:15:26.159Z,16.07
2018-02-04T22:17:56.672Z,12.57
2018-02-04T22:20:24.306Z,13.73
2018-02-04T22:22:55.848Z,16.63
2018-02-04T22:25:23.788Z,11.77
2018-02-04T22:27:51.610Z,13.47
2018-02-04T22:30:19.144Z,14.93
2018-02-04T22:32:49.654Z,13.50
2018-02-04T22:35:17.182Z,16.93
2018-02-04T22:37:44.673Z,16.70
2018-02-04T22:40:12.169Z,17.97
2018-02-04T22:42:39.673Z,13.20
2018-02-04T22:45:09.165Z,17.23
2018-02-04T22:47:36.660Z,15.53
2018-02-04T22:50:04.144Z,13.67
2018-02-04T22:52:32.113Z,16.47
2018-02-04T22:54:59.603Z,13.90
2018-02-04T22:57:27.127Z,14.70
2018-02-04T22:59:54.627Z,19.93
2018-02-04T23:02:22.118Z,18.73
2018-02-04T23:04:50.402Z,17.73
2018-02-04T23:07:18.666Z,21.73
2018-02-04T23:09:46.148Z,15.70
2018-02-04T23:12:14.426Z,18.43
2018-02-04T23:14:41.921Z,14.27
2018-02-04T23:17:09.482Z,17.40
2018-02-04T23:19:37.247Z,11.60
2018-02-04T23:22:04.717Z,13.87
2018-02-04T23:24:32.215Z,12.63
2018-02-04T23:26:59.751Z,16.30
2018-02-04T23:29:27.238Z,16.33
2018-02-04T23:31:54.751Z,17.93
2018-02-04T23:34:23.143Z,17.23
2018-02-04T23:36:50.658Z,11.73
2018-02-04T23:39:18.143Z,11.97
2018-02-04T23:41:45.628Z,13.30
2018-02-04T23:44:13.135Z,13.67
2018-02-04T23:46:40.610Z,13.50
2018-02-04T23:49:08.155Z,14.10
2018-02-04T23:51:35.685Z,20.47
2018-02-04T23:54:03.191Z,16.23
2018-02-04T23:56:30.680Z,17.60
2018-02-04T23:58:58.914Z,15.97
